createdAt,value
2023-01-13T00:04:29.176Z,100266.33
2023-01-13T00:09:32.036Z,100269.41
2023-01-13T00:14:36.120Z,100272.60
2023-01-13T00:19:39.139Z,100278.44
2023-01-13T00:24:42.275Z,100273.94
2023-01-13T00:29:45.509Z,100273.35
2023-01-13T00:34:48.612Z,100265.63
2023-01-13T00:39:52.628Z,100265.30
2023-01-13T00:44:55.749Z,100265.29
2023-01-13T00:49:58.592Z,100258.93
2023-01-13T00:55:01.426Z,100263.72
2023-01-13T01:00:06.516Z,100260.70
2023-01-13T01:05:12.081Z,100255.08
2023-01-13T01:10:15.135Z,100251.20
2023-01-13T01:15:19.105Z,100245.02
2023-01-13T01:20:21.965Z,100244.23
2023-01-13T01:25:25.364Z,100237.20
2023-01-13T01:30:28.240Z,100223.56
2023-01-13T01:35:33.239Z,100220.58
2023-01-13T01:40:36.126Z,100220.55
2023-01-13T01:45:39.092Z,100214.77
2023-01-13T01:50:42.015Z,100208.73
2023-01-13T01:55:44.773Z,100197.52
2023-01-13T02:00:50.164Z,100189.47
2023-01-13T02:05:53.250Z,100172.40
2023-01-13T02:10:56.359Z,100170.90
2023-01-13T02:16:08.718Z,100167.33
2023-01-13T02:21:48.346Z,100167.85
2023-01-13T02:27:24.286Z,100164.02
2023-01-13T02:32:46.917Z,100160.77
2023-01-13T02:37:49.848Z,100158.91
2023-01-13T02:43:44.689Z,100157.72
2023-01-13T02:48:47.988Z,100163.83
2023-01-13T02:53:58.542Z,100157.66
2023-01-13T02:59:01.796Z,100156.52
2023-01-13T03:04:15.199Z,100144.73
2023-01-13T03:09:49.435Z,100137.15
2023-01-13T03:15:21.548Z,100128.63
2023-01-13T03:20:31.108Z,100129.66
2023-01-13T03:25:41.518Z,100130.48
2023-01-13T03:30:49.911Z,100128.66
2023-01-13T03:35:55.902Z,100128.24
2023-01-13T03:41:02.716Z,100129.38
2023-01-13T03:46:11.766Z,100131.44
2023-01-13T03:51:19.270Z,100124.27
2023-01-13T03:56:38.920Z,100122.45
2023-01-13T04:02:12.472Z,100117.59
2023-01-13T04:07:24.691Z,100119.85
2023-01-13T04:12:53.865Z,100118.15
2023-01-13T04:18:20.464Z,100114.23
2023-01-13T04:23:23.322Z,100110.93
2023-01-13T04:28:26.331Z,100110.50
2023-01-13T04:33:31.096Z,100108.48
2023-01-13T04:38:35.461Z,100107.33
2023-01-13T04:43:38.301Z,100104.96
2023-01-13T04:48:42.277Z,100102.35
2023-01-13T04:53:46.926Z,100101.45
2023-01-13T04:58:49.768Z,100103.56
2023-01-13T05:03:52.864Z,100100.64
2023-01-13T05:08:55.989Z,100103.65
2023-01-13T05:14:19.335Z,100105.58
2023-01-13T05:19:22.231Z,100104.80
2023-01-13T05:24:43.788Z,100104.02
2023-01-13T05:29:46.603Z,100101.67
2023-01-13T05:34:49.813Z,100104.30
2023-01-13T05:40:11.267Z,100104.17
2023-01-13T05:45:16.607Z,100101.94
2023-01-13T05:50:19.466Z,100107.60
2023-01-13T05:55:22.255Z,100109.07
2023-01-13T06:00:28.428Z,100111.48
2023-01-13T06:05:31.892Z,100116.07
2023-01-13T06:10:35.045Z,100119.65
2023-01-13T06:15:37.969Z,100121.94
2023-01-13T06:20:40.782Z,100123.08
2023-01-13T06:26:04.435Z,100124.34
2023-01-13T06:31:07.908Z,100124.13
2023-01-13T06:36:18.612Z,100125.02
2023-01-13T06:41:40.491Z,100127.33
2023-01-13T06:46:43.492Z,100125.48
2023-01-13T06:51:46.657Z,100126.57
2023-01-13T06:56:49.639Z,100130.33
2023-01-13T07:01:53.010Z,100124.06
2023-01-13T07:06:55.960Z,100123.81
2023-01-13T07:11:58.791Z,100120.28
2023-01-13T07:17:01.626Z,100126.59
2023-01-13T07:22:04.423Z,100121.48
2023-01-13T07:27:07.237Z,100131.05
2023-01-13T07:32:10.286Z,100131.33
2023-01-13T07:37:13.162Z,100132.21
2023-01-13T07:42:35.007Z,100132.87
2023-01-13T07:47:38.123Z,100135.60
2023-01-13T07:52:41.021Z,100130.30
2023-01-13T07:57:44.646Z,100133.76
2023-01-13T08:02:47.454Z,100133.05
2023-01-13T08:07:50.475Z,100133.79
2023-01-13T08:13:12.038Z,100133.52
2023-01-13T08:18:15.124Z,100133.50
2023-01-13T08:23:19.119Z,100133.30
2023-01-13T08:28:24.177Z,100135.38
2023-01-13T08:33:27.762Z,100134.58
2023-01-13T08:38:31.804Z,100133.46
2023-01-13T08:43:34.635Z,100131.79
2023-01-13T08:48:39.841Z,100133.00
2023-01-13T08:53:42.794Z,100136.13
2023-01-13T08:58:45.652Z,100133.60
2023-01-13T09:03:48.437Z,100139.45
2023-01-13T09:08:51.281Z,100142.94
2023-01-13T09:13:54.257Z,100145.69
2023-01-13T09:19:17.266Z,100137.92
2023-01-13T09:24:20.225Z,100130.70
2023-01-13T09:29:23.307Z,100130.61
2023-01-13T09:34:45.848Z,100131.54
2023-01-13T09:39:48.764Z,100132.65
2023-01-13T09:45:02.985Z,100120.14
2023-01-13T09:50:15.100Z,100117.91
2023-01-13T09:55:37.457Z,100113.23
2023-01-13T10:01:02.474Z,100113.12
2023-01-13T10:06:20.256Z,100106.11
2023-01-13T10:11:44.282Z,100110.46
2023-01-13T10:17:15.600Z,100102.54
2023-01-13T10:22:33.798Z,100101.91
2023-01-13T10:27:40.888Z,100095.38
2023-01-13T10:32:46.562Z,100092.52
2023-01-13T10:37:57.083Z,100086.81
2023-01-13T10:43:06.790Z,100084.59
2023-01-13T10:48:14.723Z,100086.79
2023-01-13T10:53:24.880Z,100080.98
2023-01-13T10:58:28.315Z,100076.51
2023-01-13T11:03:43.090Z,100079.54
2023-01-13T11:08:49.368Z,100073.58
2023-01-13T11:14:13.203Z,100071.86
2023-01-13T11:19:17.303Z,100070.39
2023-01-13T11:24:38.091Z,100071.11
2023-01-13T11:30:10.425Z,100066.32
2023-01-13T11:35:18.844Z,100071.86
2023-01-13T11:40:36.948Z,100068.45
2023-01-13T11:45:51.088Z,100063.79
2023-01-13T11:51:15.155Z,100059.23
2023-01-13T11:56:28.363Z,100053.66
2023-01-13T12:02:04.620Z,100054.33
2023-01-13T12:07:28.451Z,100046.04
2023-01-13T12:12:45.549Z,100045.79
2023-01-13T12:18:30.208Z,100041.81
2023-01-13T12:23:53.066Z,100040.71
2023-01-13T12:29:01.051Z,100035.05
2023-01-13T12:34:18.270Z,100038.56
2023-01-13T12:39:42.057Z,100045.92
2023-01-13T12:45:09.901Z,100045.55
2023-01-13T12:50:21.830Z,100046.16
2023-01-13T12:55:44.081Z,100045.44
2023-01-13T13:01:01.373Z,100046.02
2023-01-13T13:06:19.970Z,100042.96
2023-01-13T13:11:55.691Z,100034.50
2023-01-13T13:17:01.213Z,100033.77
2023-01-13T13:22:13.410Z,100036.42
2023-01-13T13:27:36.961Z,100040.27
2023-01-13T13:33:49.559Z,100049.13
2023-01-13T13:39:41.248Z,100051.95
2023-01-13T13:45:05.185Z,100053.80
2023-01-13T13:50:14.745Z,100051.88
2023-01-13T13:55:23.749Z,100054.11
2023-01-13T14:00:35.599Z,100054.88
2023-01-13T14:05:38.517Z,100057.30
2023-01-13T14:10:43.352Z,100063.18
2023-01-13T14:15:49.147Z,100068.52
2023-01-13T14:20:59.555Z,100067.30
2023-01-13T14:26:13.000Z,100066.88
2023-01-13T14:31:15.895Z,100064.05
2023-01-13T14:36:24.621Z,100066.89
2023-01-13T14:41:28.463Z,100064.11
2023-01-13T14:46:42.399Z,100065.61
2023-01-13T14:51:45.315Z,100065.13
2023-01-13T14:56:53.907Z,100064.39
2023-01-13T15:01:58.044Z,100066.15
2023-01-13T15:07:01.303Z,100064.50
2023-01-13T15:12:23.440Z,100063.61
2023-01-13T15:17:28.796Z,100063.71
2023-01-13T15:22:31.629Z,100065.27
2023-01-13T15:27:34.395Z,100064.84
2023-01-13T15:32:38.657Z,100064.59
2023-01-13T15:37:42.879Z,100063.66
2023-01-13T15:43:04.458Z,100065.95
2023-01-13T15:48:07.717Z,100062.11
2023-01-13T15:53:14.511Z,100063.30
2023-01-13T15:58:18.244Z,100062.48
2023-01-13T16:03:21.148Z,100066.71
2023-01-13T16:08:24.037Z,100063.05
2023-01-13T16:13:26.925Z,100064.81
2023-01-13T16:18:29.875Z,100072.98
2023-01-13T16:23:32.639Z,100079.05
2023-01-13T16:28:35.955Z,100078.36
2023-01-13T16:33:39.094Z,100083.77
2023-01-13T16:38:42.272Z,100088.64
2023-01-13T16:43:45.966Z,100085.63
2023-01-13T16:48:52.032Z,100085.58
2023-01-13T16:53:54.887Z,100082.55
2023-01-13T16:59:18.845Z,100081.88
2023-01-13T17:04:23.537Z,100076.02
2023-01-13T17:09:30.213Z,100077.33
2023-01-13T17:14:33.085Z,100080.52
2023-01-13T17:19:35.938Z,100083.46
2023-01-13T17:24:38.816Z,100098.20
2023-01-13T17:29:41.829Z,100096.50
2023-01-13T17:34:46.126Z,100106.73
2023-01-13T17:39:51.064Z,100118.90
2023-01-13T17:44:55.223Z,100112.27
2023-01-13T17:49:58.060Z,100114.80
2023-01-13T17:55:01.015Z,100115.94
2023-01-13T18:00:05.109Z,100117.77
2023-01-13T18:05:08.862Z,100116.89
2023-01-13T18:10:12.067Z,100108.96
2023-01-13T18:15:14.874Z,100110.02
2023-01-13T18:20:37.020Z,100112.41
2023-01-13T18:25:58.488Z,100116.09
2023-01-13T18:31:01.324Z,100111.30
2023-01-13T18:36:08.417Z,100107.02
2023-01-13T18:41:29.979Z,100112.66
2023-01-13T18:46:33.007Z,100115.88
2023-01-13T18:51:36.493Z,100119.71
2023-01-13T18:56:42.544Z,100126.36
2023-01-13T19:01:45.532Z,100130.35
2023-01-13T19:06:51.510Z,100134.88
2023-01-13T19:11:58.394Z,100139.08
2023-01-13T19:17:08.840Z,100141.13
2023-01-13T19:22:13.141Z,100142.58
2023-01-13T19:27:17.274Z,100141.83
2023-01-13T19:32:21.177Z,100143.45
2023-01-13T19:37:30.064Z,100144.45
2023-01-13T19:42:51.923Z,100147.65
2023-01-13T19:47:57.073Z,100144.45
2023-01-13T19:53:00.101Z,100157.73
2023-01-13T19:58:04.069Z,100156.30
2023-01-13T20:03:10.919Z,100167.05
2023-01-13T20:08:13.782Z,100175.82
2023-01-13T20:13:16.677Z,100182.34
2023-01-13T20:18:21.975Z,100187.67
2023-01-13T20:23:24.846Z,100184.36
2023-01-13T20:28:27.785Z,100187.26
2023-01-13T20:33:30.653Z,100188.17
2023-01-13T20:38:39.697Z,100191.17
2023-01-13T20:43:42.657Z,100198.31
2023-01-13T20:48:45.699Z,100202.48
2023-01-13T20:53:48.565Z,100210.14
2023-01-13T20:58:51.932Z,100220.54
2023-01-13T21:03:59.043Z,100224.53
2023-01-13T21:09:02.127Z,100227.38
2023-01-13T21:14:23.304Z,100229.37
2023-01-13T21:19:26.272Z,100237.93
2023-01-13T21:24:29.233Z,100238.13
2023-01-13T21:29:32.104Z,100236.70
2023-01-13T21:34:35.530Z,100242.38
2023-01-13T21:39:38.410Z,100248.89
2023-01-13T21:44:59.977Z,100255.27
2023-01-13T21:50:08.007Z,100257.42
2023-01-13T21:55:20.360Z,100261.27
2023-01-13T22:00:28.135Z,100261.32
2023-01-13T22:05:31.441Z,100263.58
2023-01-13T22:10:34.812Z,100276.67
2023-01-13T22:15:37.858Z,100278.73
2023-01-13T22:20:42.121Z,100278.91
2023-01-13T22:25:45.292Z,100284.76
2023-01-13T22:30:49.939Z,100285.61
2023-01-13T22:35:57.295Z,100296.48
2023-01-13T22:41:07.289Z,100301.29
2023-01-13T22:46:11.811Z,100305.08
2023-01-13T22:51:16.123Z,100306.92
2023-01-13T22:56:22.074Z,100308.33
2023-01-13T23:01:26.715Z,100306.73
2023-01-13T23:06:32.392Z,100307.58
2023-01-13T23:11:35.609Z,100319.05
2023-01-13T23:16:39.898Z,100310.40
2023-01-13T23:21:42.814Z,100316.41
2023-01-13T23:26:45.698Z,100317.39
2023-01-13T23:31:49.708Z,100324.09
2023-01-13T23:36:52.802Z,100322.61
2023-01-13T23:41:55.964Z,100327.30
2023-01-13T23:46:58.790Z,100321.44
2023-01-13T23:52:01.666Z,100319.94
2023-01-13T23:57:05.729Z,100317.73
